createdAt,value
2018-12-06T00:00:48.864Z,7.77
2018-12-06T00:06:46.646Z,8.10
2018-12-06T00:09:17.710Z,9.70
2018-12-06T00:11:47.839Z,9.00
2018-12-06T00:27:15.803Z,9.50
2018-12-06T00:30:01.053Z,10.17
2018-12-06T00:32:33.281Z,8.90
2018-12-06T00:47:37.330Z,8.77
2018-12-06T00:50:11.361Z,9.63
2018-12-06T00:52:44.559Z,8.37
2018-12-06T00:55:25.805Z,9.40
2018-12-06T00:58:14.098Z,9.90
2018-12-06T01:00:46.856Z,9.13
2018-12-06T01:03:24.506Z,10.23
2018-12-06T01:05:55.620Z,9.40
2018-12-06T01:08:26.677Z,10.67
2018-12-06T01:10:57.990Z,10.17
2018-12-06T01:13:52.323Z,8.77
2018-12-06T01:19:53.897Z,9.67
2018-12-06T01:22:24.076Z,10.17
2018-12-06T01:25:12.797Z,9.10
2018-12-06T01:27:43.871Z,9.60
2018-12-06T01:30:17.699Z,9.43
2018-12-06T01:32:50.209Z,8.90
2018-12-06T01:57:22.713Z,9.80
2018-12-06T01:59:52.801Z,10.57
2018-12-06T02:02:22.806Z,9.77
2018-12-06T02:05:11.498Z,10.10
2018-12-06T02:07:41.513Z,9.67
2018-12-06T02:11:00.203Z,9.87
2018-12-06T02:13:46.021Z,9.83
2018-12-06T02:16:16.150Z,11.00
2018-12-06T02:18:46.149Z,11.37
2018-12-06T02:21:16.236Z,10.60
2018-12-06T02:24:01.835Z,10.90
2018-12-06T02:26:31.829Z,10.67
2018-12-06T02:29:33.078Z,11.23
2018-12-06T02:35:48.602Z,11.57
2018-12-06T02:38:29.301Z,11.07
2018-12-06T02:40:59.289Z,11.30
2018-12-06T02:47:01.987Z,10.07
2018-12-06T02:52:32.414Z,12.23
2018-12-06T02:55:19.121Z,11.37
2018-12-06T02:57:49.289Z,13.03
2018-12-06T03:00:19.290Z,11.57
2018-12-06T03:02:49.407Z,12.90
2018-12-06T03:05:29.729Z,11.83
2018-12-06T03:07:59.812Z,11.43
2018-12-06T03:10:29.811Z,11.90
2018-12-06T03:13:54.549Z,12.30
2018-12-06T03:16:25.612Z,11.87
2018-12-06T03:25:25.615Z,12.27
2018-12-06T03:27:55.627Z,14.47
2018-12-06T03:30:25.740Z,13.93
2018-12-06T03:32:55.910Z,13.37
2018-12-06T03:39:03.843Z,12.60
2018-12-06T03:41:33.876Z,14.10
2018-12-06T03:44:20.014Z,14.47
2018-12-06T03:46:49.996Z,13.57
2018-12-06T03:49:22.623Z,13.53
2018-12-06T03:51:52.676Z,13.47
2018-12-06T03:54:38.760Z,13.10
2018-12-06T03:57:08.915Z,16.93
2018-12-06T03:59:38.928Z,13.77
2018-12-06T04:02:31.452Z,14.97
2018-12-06T04:08:29.475Z,13.73
2018-12-06T04:26:32.086Z,15.57
2018-12-06T04:29:02.219Z,17.80
2018-12-06T04:31:35.297Z,16.20
2018-12-06T04:37:43.190Z,14.23
2018-12-06T04:40:21.433Z,16.80
2018-12-06T04:42:51.465Z,15.43
2018-12-06T04:45:37.736Z,15.43
2018-12-06T04:48:08.089Z,16.50
2018-12-06T04:50:38.122Z,13.50
2018-12-06T04:53:08.356Z,15.47
2018-12-06T04:55:54.726Z,16.80
2018-12-06T04:58:24.771Z,16.50
2018-12-06T05:04:11.129Z,16.47
2018-12-06T05:07:01.429Z,15.87
2018-12-06T05:12:00.977Z,15.40
2018-12-06T05:14:41.647Z,14.90
2018-12-06T05:17:20.175Z,15.63
2018-12-06T05:20:15.307Z,16.03
2018-12-06T05:23:10.781Z,17.33
2018-12-06T05:47:59.505Z,16.37
2018-12-06T06:32:50.396Z,18.70
2018-12-06T06:44:57.901Z,19.03
2018-12-06T06:47:28.605Z,16.43
2018-12-06T06:50:01.467Z,16.93
2018-12-06T06:52:31.891Z,16.00
2018-12-06T07:01:12.008Z,15.80
2018-12-06T07:03:58.121Z,15.80
2018-12-06T07:06:28.277Z,15.47
2018-12-06T07:08:58.485Z,14.70
2018-12-06T07:11:28.590Z,15.13
2018-12-06T07:17:27.222Z,15.67
2018-12-06T07:20:20.775Z,14.90
2018-12-06T07:22:50.760Z,14.50
2018-12-06T07:28:34.754Z,14.07
2018-12-06T07:31:05.134Z,13.57
2018-12-06T07:33:51.793Z,14.20
2018-12-06T07:36:23.316Z,14.83
2018-12-06T07:39:14.142Z,14.07
2018-12-06T07:55:45.386Z,16.10
2018-12-06T08:01:22.266Z,15.97
2018-12-06T08:04:10.771Z,16.90
2018-12-06T08:06:43.019Z,15.80
2018-12-06T08:09:14.409Z,17.80
2018-12-06T08:11:44.513Z,17.50
2018-12-06T08:17:14.444Z,18.87
2018-12-06T08:19:45.587Z,20.60
2018-12-06T08:22:15.682Z,18.80
2018-12-06T08:25:01.968Z,20.40
2018-12-06T08:27:32.076Z,19.83
2018-12-06T08:30:02.268Z,19.67
2018-12-06T08:32:36.512Z,20.73
2018-12-06T08:54:08.182Z,23.33
2018-12-06T08:56:38.421Z,23.70
2018-12-06T09:08:47.031Z,24.77
2018-12-06T09:11:19.059Z,25.43
2018-12-06T09:29:56.494Z,26.13
2018-12-06T09:32:52.823Z,26.90
2018-12-06T09:51:36.142Z,20.70
2018-12-06T10:00:54.348Z,16.97
2018-12-06T10:03:34.214Z,17.30
2018-12-06T10:06:16.807Z,17.13
2018-12-06T10:08:47.150Z,18.93
2018-12-06T10:11:19.005Z,17.60
2018-12-06T10:14:05.145Z,19.37
2018-12-06T10:16:35.288Z,17.73
2018-12-06T10:19:05.370Z,18.80
2018-12-06T10:21:59.686Z,18.57
2018-12-06T10:28:00.703Z,19.63
2018-12-06T10:30:33.396Z,22.07
2018-12-06T10:33:04.215Z,23.10
2018-12-06T10:39:02.425Z,26.50
2018-12-06T10:44:48.927Z,24.20
2018-12-06T10:47:24.335Z,26.17
2018-12-06T10:49:54.335Z,25.93
2018-12-06T10:52:26.179Z,26.10
2018-12-06T11:01:30.314Z,26.53
2018-12-06T11:04:16.202Z,26.90
2018-12-06T11:07:05.525Z,24.70
2018-12-06T11:09:36.689Z,26.57
2018-12-06T11:12:25.031Z,25.73
2018-12-06T11:18:00.712Z,24.73
2018-12-06T11:20:32.882Z,23.90
2018-12-06T11:23:02.958Z,24.40
2018-12-06T11:25:50.838Z,24.67
2018-12-06T11:28:39.817Z,21.80
2018-12-06T11:31:10.109Z,25.47
2018-12-06T11:33:56.428Z,22.63
2018-12-06T11:36:45.272Z,20.60
2018-12-06T11:39:15.316Z,20.50
2018-12-06T11:41:45.377Z,19.97
2018-12-06T11:44:32.268Z,19.53
2018-12-06T11:47:20.451Z,19.10
2018-12-06T11:53:19.861Z,15.67
2018-12-06T11:56:02.191Z,17.47
2018-12-06T11:58:33.324Z,17.57
2018-12-06T12:01:21.179Z,17.03
2018-12-06T12:04:07.471Z,15.47
2018-12-06T12:06:40.101Z,17.30
2018-12-06T12:09:25.936Z,16.60
2018-12-06T12:11:56.050Z,16.10
2018-12-06T12:28:22.323Z,17.77
2018-12-06T12:39:08.343Z,16.70
2018-12-06T12:41:38.585Z,14.87
2018-12-06T12:44:24.827Z,15.33
2018-12-06T12:47:13.729Z,14.43
2018-12-06T12:50:03.017Z,12.70
2018-12-06T13:02:11.533Z,10.97
2018-12-06T13:04:57.555Z,8.20
2018-12-06T13:07:45.476Z,10.00
2018-12-06T13:10:15.856Z,9.93
2018-12-06T13:13:03.739Z,9.00
2018-12-06T13:15:50.055Z,10.40
2018-12-06T13:18:38.757Z,9.47
2018-12-06T13:21:26.998Z,10.63
2018-12-06T13:24:13.461Z,9.27
2018-12-06T13:30:11.346Z,9.13
2018-12-06T13:32:41.656Z,9.83
2018-12-06T13:35:29.626Z,8.93
2018-12-06T13:38:25.312Z,9.80
2018-12-06T13:40:55.556Z,9.70
2018-12-06T13:46:43.356Z,10.63
2018-12-06T13:49:14.067Z,10.07
2018-12-06T13:51:44.273Z,8.53
2018-12-06T14:00:48.958Z,9.33
2018-12-06T14:03:37.491Z,8.60
2018-12-06T14:06:25.387Z,9.70
2018-12-06T14:09:13.207Z,8.80
2018-12-06T14:12:02.368Z,9.30
2018-12-06T14:14:57.516Z,9.93
2018-12-06T14:21:05.081Z,9.93
2018-12-06T14:23:53.874Z,9.43
2018-12-06T14:26:46.407Z,10.17
2018-12-06T14:29:16.372Z,11.07
2018-12-06T14:31:46.245Z,9.60
2018-12-06T14:40:53.930Z,11.07
2018-12-06T14:47:02.405Z,10.63
2018-12-06T14:49:52.254Z,10.27
2018-12-06T14:52:40.286Z,10.87
2018-12-06T14:58:30.127Z,10.17
2018-12-06T15:01:18.113Z,9.57
2018-12-06T15:04:07.497Z,9.53
2018-12-06T15:06:37.933Z,11.00
2018-12-06T15:09:09.690Z,8.30
2018-12-06T15:11:39.658Z,9.60
2018-12-06T15:14:26.363Z,8.57
2018-12-06T15:17:06.440Z,9.63
2018-12-06T15:19:52.046Z,10.30
2018-12-06T15:22:40.742Z,9.40
2018-12-06T15:28:28.629Z,10.47
2018-12-06T15:30:58.840Z,9.30
2018-12-06T15:33:47.033Z,10.03
2018-12-06T15:36:26.763Z,8.87
2018-12-06T15:45:22.848Z,7.20
2018-12-06T15:47:54.457Z,8.80
2018-12-06T15:50:24.800Z,7.87
2018-12-06T15:52:54.988Z,7.33
2018-12-06T15:59:03.851Z,6.50
2018-12-06T16:08:12.165Z,7.87
2018-12-06T16:10:43.201Z,6.57
2018-12-06T16:13:13.238Z,6.73
2018-12-06T16:15:46.212Z,7.40
2018-12-06T16:18:16.278Z,7.93
2018-12-06T16:20:48.244Z,6.93
2018-12-06T16:23:36.612Z,7.73
2018-12-06T16:26:16.764Z,7.90
2018-12-06T16:28:46.932Z,7.40
2018-12-06T16:31:17.000Z,7.57
2018-12-06T16:33:57.374Z,8.77
2018-12-06T16:39:40.925Z,8.60
2018-12-06T16:45:27.470Z,7.17
2018-12-06T16:48:15.259Z,8.70
2018-12-06T16:51:03.062Z,7.50
2018-12-06T16:53:51.263Z,8.40
2018-12-06T16:56:21.336Z,7.83
2018-12-06T16:58:51.717Z,7.60
2018-12-06T17:01:21.671Z,8.30
2018-12-06T17:04:07.283Z,8.00
2018-12-06T17:06:51.571Z,8.13
2018-12-06T17:12:37.752Z,7.53
2018-12-06T17:15:24.175Z,6.90
2018-12-06T17:18:12.441Z,6.80
2018-12-06T17:20:42.436Z,8.00
2018-12-06T17:23:31.549Z,7.30
2018-12-06T17:29:29.527Z,6.60
2018-12-06T17:32:15.227Z,7.30
2018-12-06T17:41:14.298Z,6.70
2018-12-06T17:44:00.642Z,6.93
2018-12-06T17:46:49.024Z,6.73
2018-12-06T17:49:43.995Z,7.10
2018-12-06T17:55:44.883Z,7.17
2018-12-06T17:58:14.750Z,6.73
2018-12-06T18:00:45.491Z,7.10
2018-12-06T18:03:15.755Z,6.87
2018-12-06T18:05:46.719Z,6.73
2018-12-06T18:08:16.748Z,8.80
2018-12-06T18:10:47.144Z,6.67
2018-12-06T18:13:35.068Z,7.33
2018-12-06T18:16:29.813Z,7.20
2018-12-06T18:18:59.692Z,7.80
2018-12-06T18:21:29.614Z,7.17
2018-12-06T18:24:09.845Z,7.40
2018-12-06T18:26:58.466Z,6.83
2018-12-06T18:29:28.757Z,6.90
2018-12-06T18:32:03.546Z,7.00
2018-12-06T18:34:49.312Z,7.00
2018-12-06T18:37:37.773Z,7.03
2018-12-06T18:40:07.913Z,7.87
2018-12-06T18:42:37.904Z,8.27
2018-12-06T18:48:17.261Z,7.30
2018-12-06T18:51:05.804Z,8.03
2018-12-06T19:00:22.937Z,8.10
2018-12-06T19:31:26.615Z,11.60
2018-12-06T19:34:13.103Z,10.20
2018-12-06T19:43:26.588Z,11.50
2018-12-06T19:49:27.278Z,11.20
2018-12-06T19:55:25.809Z,12.57
2018-12-06T20:07:53.452Z,12.60
2018-12-06T20:10:41.358Z,11.80
2018-12-06T20:13:29.191Z,13.30
2018-12-06T20:15:59.087Z,12.60
2018-12-06T20:18:29.340Z,12.00
2018-12-06T20:21:11.864Z,13.57
2018-12-06T20:23:59.545Z,11.90
2018-12-06T20:26:29.891Z,12.00
2018-12-06T20:29:00.049Z,12.53
2018-12-06T20:37:32.537Z,12.73
2018-12-06T20:40:23.454Z,12.30
2018-12-06T20:42:53.734Z,12.13
2018-12-06T20:48:52.291Z,11.70
2018-12-06T20:51:40.296Z,11.87
2018-12-06T20:54:28.857Z,12.27
2018-12-06T20:57:16.626Z,12.57
2018-12-06T21:00:04.873Z,12.33
2018-12-06T21:09:20.043Z,12.43
2018-12-06T21:12:07.911Z,12.63
2018-12-06T21:17:46.582Z,12.53
2018-12-06T21:20:33.282Z,13.60
2018-12-06T21:23:22.239Z,12.70
2018-12-06T21:28:52.660Z,12.50
2018-12-06T21:34:38.969Z,12.43
2018-12-06T21:37:09.019Z,13.10
2018-12-06T21:42:57.165Z,13.70
2018-12-06T21:45:43.555Z,11.40
2018-12-06T21:48:35.909Z,12.43
2018-12-06T21:51:06.430Z,12.23
2018-12-06T21:53:50.142Z,12.60
2018-12-06T21:56:20.410Z,12.07
2018-12-06T21:59:08.896Z,13.53
2018-12-06T22:01:40.040Z,12.17
2018-12-06T22:04:26.171Z,12.23
2018-12-06T22:38:48.751Z,8.00
2018-12-06T22:41:18.869Z,7.23
2018-12-06T23:09:16.002Z,7.40
2018-12-06T23:11:46.376Z,7.40
2018-12-06T23:14:36.355Z,7.03
2018-12-06T23:17:19.586Z,7.90
2018-12-06T23:20:16.695Z,7.10
2018-12-06T23:23:10.604Z,7.93
2018-12-06T23:29:18.914Z,8.27
2018-12-06T23:35:13.130Z,7.27
2018-12-06T23:38:01.071Z,6.90
2018-12-06T23:40:46.960Z,7.13
2018-12-06T23:46:44.761Z,8.17
2018-12-06T23:52:47.389Z,5.73
